FW3894 Weather Reports


time (UTC)temp
F
wind
direction
speed
knots
gust
knots
rain 1hr
in
rain 24hr
in
rain mn
in
humidity
%
barometer
mb
20260504214531 59 266 6.1 15.6 0.00 0.00 0.00 73 1009.3
20260504214007 59 188 7.0 15.6 0.00 0.00 0.00 75 1009.4
20260504213516 59 207 7.8 16.5 0.00 0.00 0.00 73 1009.3
20260504213042 60 228 7.8 16.5 0.00 0.00 0.00 73 1009.5
20260504212515 60 186 7.8 16.5 0.00 0.00 0.00 73 1009.2
20260504212014 60 198 6.1 16.5 0.00 0.00 0.00 72 1009.3
20260504211534 60 202 7.0 17.4 0.00 0.00 0.00 73 1009.3
20260504211010 59 159 7.8 17.4 0.00 0.00 0.00 74 1009.3
20260504210511 60 208 8.7 14.8 0.00 0.00 0.00 73 1009.3
20260504210030 58 161 7.8 13.9 0.00 0.00 0.00 76 1009.3
20260504205510 57 201 7.8 14.8 0.00 0.00 0.00 80 1009.3
20260504205013 57 213 8.7 14.8 0.00 0.00 0.00 80 1009.3
20260504204541 57 192 7.8 18.2 0.00 0.00 0.00 80 1009.2
20260504204014 57 180 8.7 18.2 0.00 0.00 0.00 80 1009.3
20260504203514 57 190 8.7 17.4 0.00 0.00 0.00 79 1009.2
20260504203033 57 191 8.7 19.1 0.00 0.00 0.00 79 1009.2
20260504202510 57 205 8.7 19.1 0.00 0.00 0.00 79 1009.3
20260504202014 57 194 8.7 16.5 0.00 0.00 0.00 78 1009.2
20260504201530 57 212 8.7 20.9 0.00 0.00 0.00 78 1009.2
20260504201010 57 173 7.8 20.9 0.00 0.00 0.00 78 1009.5
20260504200511 57 178 10.4 19.1 0.00 0.00 0.00 78 1009.3
20260504200028 57 107 8.7 19.1 0.00 0.00 0.00 77 1009.3
20260504195511 58 211 8.7 16.5 0.00 0.00 0.00 76 1009.3
20260504195016 58 190 8.7 16.5 0.00 0.00 0.00 77 1009.4
20260504194528 58 182 7.8 20.9 0.00 0.00 0.00 77 1009.4
20260504194010 58 188 10.4 20.9 0.00 0.00 0.00 75 1009.4
20260504193511 58 179 8.7 16.5 0.00 0.00 0.00 75 1009.5
20260504193031 58 188 8.7 16.5 0.00 0.00 0.00 75 1009.5
20260504192510 58 216 7.8 16.5 0.00 0.00 0.00 76 1009.6
20260504192013 58 162 7.0 18.2 0.00 0.00 0.00 75 1009.6
20260504191529 58 175 8.7 19.1 0.00 0.00 0.00 75 1009.9
20260504191009 58 180 9.6 19.1 0.00 0.00 0.00 75 1009.8
20260504190510 58 175 8.7 15.6 0.00 0.00 0.00 75 1009.8
20260504190030 58 145 7.8 16.5 0.00 0.00 0.00 75 1010.0
20260504185508 58 224 7.8 17.4 0.00 0.00 0.00 76 1010.1
20260504185011 58 184 7.8 18.2 0.00 0.00 0.00 75 1010.1
20260504184530 58 203 8.7 18.2 0.00 0.00 0.00 74 1010.1
20260504184011 59 186 8.7 14.8 0.00 0.00 0.00 73 1010.1
20260504183517 59 195 7.0 15.6 0.00 0.00 0.00 75 1010.1
20260504183030 58 169 8.7 15.6 0.00 0.00 0.00 75 1010.3
20260504182508 58 187 8.7 17.4 0.00 0.00 0.00 75 1010.5
20260504182015 58 182 9.6 17.4 0.00 0.00 0.00 76 1010.3
20260504181533 59 188 8.7 16.5 0.00 0.00 0.00 74 1010.5
20260504181013 59 136 5.2 16.5 0.00 0.00 0.00 75 1010.4
20260504180514 59 177 7.0 14.8 0.00 0.00 0.00 75 1010.6
20260504180030 59 175 7.0 15.6 0.00 0.00 0.00 75 1010.7
20260504175509 59 155 7.0 17.4 0.00 0.00 0.00 75 1010.7
20260504175011 59 192 7.8 17.4 0.00 0.00 0.00 74 1010.8
20260504174530 59 187 6.1 13.9 0.00 0.00 0.00 73 1010.8
20260504174010 59 145 7.8 15.6 0.00 0.00 0.00 73 1010.9
20260504173512 59 161 7.0 15.6 0.00 0.00 0.00 73 1010.9
20260504173028 59 164 7.0 14.8 0.00 0.00 0.00 73 1010.8
20260504172512 60 160 8.7 15.6 0.00 0.00 0.00 71 1010.9
20260504172017 61 182 7.8 15.6 0.00 0.00 0.00 69 1010.9
20260504171528 60 180 7.8 13.9 0.00 0.00 0.00 72 1011.1
20260504171013 59 156 7.8 13.0 0.00 0.00 0.00 72 1011.0
20260504170513 59 194 6.1 13.0 0.00 0.00 0.00 72 1011.2
20260504151013 60 262 3.5 13.0 0.00 0.00 0.00 69 1012.5
20260504150513 61 175 6.1 13.0 0.00 0.00 0.00 65 1012.5
20260504141009 62 280 6.1 13.9 0.00 0.00 0.00 45 1013.0
20260504140508 62 265 7.0 13.9 0.00 0.00 0.00 47 1012.8
20260504130512 59 241 7.0 13.0 0.00 0.00 0.00 54 1013.4
20260504110510 50 317 7.0 12.2 0.00 0.00 0.00 73 1014.1
20260504100512 50 263 6.1 14.8 0.00 0.00 0.00 69 1013.9
20260504081531 50 337 5.2 11.3 0.00 0.00 0.00 61 1013.7
20260504081010 50 278 7.0 11.3 0.00 0.00 0.00 61 1013.5
20260504080511 49 279 5.2 11.3 0.00 0.00 0.00 62 1013.6
20260504050512 50 275 4.3 9.6 0.00 0.00 0.00 56 1012.9
20260504045510 50 279 4.3 8.7 0.00 0.00 0.00 55 1012.9
20260504045013 50 325 3.5 8.7 0.00 0.00 0.00 55 1012.8
20260504044538 50 324 3.5 7.8 0.00 0.00 0.00 56 1012.7
20260504044010 51 323 4.3 7.8 0.00 0.00 0.00 54 1012.7
20260504043511 51 291 4.3 7.8 0.00 0.00 0.00 55 1012.5
20260504043029 51 274 3.5 7.8 0.00 0.00 0.00 54 1012.6
20260504042509 51 360 4.3 7.8 0.00 0.00 0.00 53 1012.6
20260504042011 51 311 3.5 7.0 0.00 0.00 0.00 53 1012.4
20260504041531 51 250 2.6 8.7 0.00 0.00 0.00 54 1012.4
20260504041010 51 360 3.5 8.7 0.00 0.00 0.00 54 1012.6
20260504040514 51 309 3.5 8.7 0.00 0.00 0.00 53 1012.3
20260504040038 51 360 3.5 9.6 0.00 0.00 0.00 54 1012.4
20260504035510 51 277 4.3 9.6 0.00 0.00 0.00 53 1012.3
20260504035011 51 360 3.5 7.8 0.00 0.00 0.00 53 1012.4
20260504034531 51 292 2.6 7.8 0.00 0.00 0.00 53 1012.3
20260504034010 51 219 3.5 7.0 0.00 0.00 0.00 52 1012.4
20260504033510 52 243 2.6 9.6 0.00 0.00 0.00 53 1012.2
20260504033032 52 274 4.3 9.6 0.00 0.00 0.00 52 1012.1
20260504032510 52 288 3.5 8.7 0.00 0.00 0.00 51 1012.2
20260504032016 52 233 3.5 8.7 0.00 0.00 0.00 51 1012.2
20260504031532 52 279 4.3 9.6 0.00 0.00 0.00 51 1012.2
20260504031010 52 307 3.5 9.6 0.00 0.00 0.00 51 1012.2
20260504030511 52 236 5.2 9.6 0.00 0.00 0.00 51 1012.2
20260504030029 53 257 5.2 9.6 0.00 0.00 0.00 50 1012.2
20260504025507 53 277 5.2 9.6 0.00 0.00 0.00 50 1012.2
20260504025013 53 304 4.3 9.6 0.00 0.00 0.00 52 1012.2
20260504024530 53 270 4.3 9.6 0.00 0.00 0.00 52 1012.1
20260504024012 53 287 4.3 9.6 0.00 0.00 0.00 52 1012.1
20260504023511 53 284 4.3 9.6 0.00 0.00 0.00 52 1012.2
20260504023030 53 306 3.5 8.7 0.00 0.00 0.00 50 1012.2
20260504022514 53 241 4.3 8.7 0.00 0.00 0.00 50 1012.1
20260504022014 53 281 3.5 9.6 0.00 0.00 0.00 51 1012.2
20260504021530 53 259 3.5 9.6 0.00 0.00 0.00 51 1012.1
20260504021009 53 260 4.3 9.6 0.00 0.00 0.00 49 1012.2
20260504020511 54 313 3.5 10.4 0.00 0.00 0.00 48 1012.1
20260504020030 54 248 5.2 10.4 0.00 0.00 0.00 48 1012.2
20260504015511 54 277 4.3 8.7 0.00 0.00 0.00 48 1012.2
20260504015013 54 256 4.3 8.7 0.00 0.00 0.00 48 1012.1
20260504014530 54 261 4.3 8.7 0.00 0.00 0.00 48 1012.1
20260504014011 54 304 3.5 8.7 0.00 0.00 0.00 48 1012.0
20260504013511 54 254 3.5 7.8 0.00 0.00 0.00 49 1012.0
20260504013040 54 273 3.5 7.8 0.00 0.00 0.00 51 1011.9
20260504012516 54 225 2.6 7.8 0.00 0.00 0.00 52 1011.8
20260504012007 55 281 2.6 7.8 0.00 0.00 0.00 51 1011.8
20260504011530 55 290 3.5 7.8 0.00 0.00 0.00 51 1011.9
20260504011012 55 269 3.5 7.0 0.00 0.00 0.00 52 1011.8
20260504010516 55 273 2.6 7.0 0.00 0.00 0.00 51 1011.6
20260504010030 55 261 2.6 7.0 0.00 0.00 0.00 50 1011.5
20260504005509 55 274 1.7 6.1 0.00 0.00 0.00 51 1011.5
20260504005011 55 286 2.6 7.0 0.00 0.00 0.00 49 1011.4
20260504004528 55 271 3.5 7.0 0.00 0.00 0.00 49 1011.4
20260504004008 55 303 2.6 7.0 0.00 0.00 0.00 49 1011.3
20260504003515 55 253 2.6 6.1 0.00 0.00 0.00 47 1011.4
20260504003033 56 252 2.6 7.0 0.00 0.00 0.00 47 1011.2
20260504002509 56 283 3.5 7.0 0.00 0.00 0.00 43 1011.1
20260504002013 56 281 2.6 6.1 0.00 0.00 0.00 45 1011.1
20260504001529 56 281 1.7 5.2 0.00 0.00 0.00 45 1011.0
20260504001011 56 278 1.7 5.2 0.00 0.00 0.00 45 1011.0
20260504000513 56 272 1.7 5.2 0.00 0.00 0.00 45 1011.0
20260504000031 57 257 1.7 6.1 0.00 0.00 0.00 44 1010.8
20260503235510 57 269 2.6 7.0 0.00 0.00 0.00 42 1010.8
20260503235010 57 294 2.6 7.0 0.00 0.00 0.00 40 1010.9
20260503234531 57 281 1.7 10.4 0.00 0.00 0.00 41 1010.7
20260503234007 58 325 1.7 10.4 0.00 0.00 0.00 41 1010.7
20260503233511 58 321 5.2 10.4 0.00 0.00 0.00 43 1010.6
20260503233035 58 319 4.3 10.4 0.00 0.00 0.00 40 1010.6
20260503232509 58 277 3.5 10.4 0.00 0.00 0.00 39 1010.6
20260503232010 58 313 4.3 11.3 0.00 0.00 0.00 39 1010.7
20260503231528 58 303 4.3 13.0 0.00 0.00 0.00 38 1010.6
20260503231011 58 240 7.0 13.0 0.00 0.00 0.00 37 1010.6
20260503230510 58 333 7.0 13.0 0.00 0.00 0.00 39 1010.5
20260503230029 59 308 7.0 13.0 0.00 0.00 0.00 43 1010.4
20260503225513 59 327 7.8 15.6 0.00 0.00 0.00 36 1010.3
20260503225011 59 304 7.0 18.2 0.00 0.00 0.00 36 1010.3
20260503224531 59 303 9.6 18.2 0.00 0.00 0.00 41 1010.3
20260503224016 59 314 3.5 12.2 0.00 0.00 0.00 38 1010.3
20260503223512 59 279 5.2 12.2 0.00 0.00 0.00 38 1010.2
20260503223032 59 281 3.5 12.2 0.00 0.00 0.00 35 1010.2
20260503222509 59 319 6.1 12.2 0.00 0.00 0.00 38 1010.2
20260503222011 59 262 5.2 12.2 0.00 0.00 0.00 35 1010.1
20260503221531 60 348 3.5 9.6 0.00 0.00 0.00 36 1010.2
20260503221010 59 324 4.3 13.9 0.00 0.00 0.00 39 1010.2
20260503220510 59 352 2.6 15.6 0.00 0.00 0.00 37 1010.2
20260503220028 59 306 10.4 15.6 0.00 0.00 0.00 39 1010.2
20260503215511 59 306 5.2 15.6 0.00 0.00 0.00 39 1010.3
20260503215016 59 337 7.0 20.9 0.00 0.00 0.00 39 1010.1